Andrelandia, Brazil
Current Conditions -  °F | °C
As of 6:00 AM on Sunday 23 Nov 2014 (Local Time) from SBBQ Reporting Station
Scattered Clouds Scattered Clouds  
Wind Chill: 66°   Ceiling: Unl
Heat Index: 66°   Visibility: 6mi
Dew Point: 64°   Wind: 7mph
Humidity: 94%   Direction: 10°N
Pressure: 30.06"   Gusts: NA
Location:  21.74°S, 44.31°W
Report Text: SBBQ 230800Z 01006KT 9999 SCT027 19/18 Q1018
Loading
Personal Weather Stations






























Interactive Weather Map New forecast layout! Learn more

10-Day Weather Forecast

Advertisements
Track Severe Weather on mobile